createdAt,value
2017-05-06T04:00:55.759Z,10
2017-05-06T04:01:21.248Z,10
2017-05-06T04:01:46.720Z,10
2017-05-06T04:02:12.219Z,10
2017-05-06T04:02:37.676Z,10
2017-05-06T04:03:03.156Z,15
2017-05-06T04:03:28.621Z,15
2017-05-06T04:03:54.111Z,15
2017-05-06T04:04:19.577Z,15
2017-05-06T04:04:45.067Z,15
2017-05-06T04:05:10.646Z,15
2017-05-06T04:05:36.099Z,15
2017-05-06T04:06:01.592Z,15
2017-05-06T04:06:27.064Z,15
2017-05-06T04:06:52.536Z,15
2017-05-06T04:07:18.030Z,15
2017-05-06T04:07:43.509Z,15
2017-05-06T04:08:08.980Z,15
2017-05-06T04:08:34.472Z,15
2017-05-06T04:08:59.944Z,15
2017-05-06T04:09:25.424Z,15
2017-05-06T04:09:50.900Z,15
2017-05-06T04:10:16.397Z,15
2017-05-06T04:10:41.930Z,20
2017-05-06T04:11:07.369Z,20
2017-05-06T04:11:32.859Z,20
2017-05-06T04:11:58.362Z,20
2017-05-06T04:12:23.873Z,20
2017-05-06T04:12:49.348Z,20
2017-05-06T04:13:14.794Z,20
2017-05-06T04:13:40.306Z,20
2017-05-06T04:14:05.757Z,20
2017-05-06T04:14:31.244Z,20
2017-05-06T04:14:56.720Z,20
2017-05-06T04:15:22.213Z,25
2017-05-06T04:15:47.706Z,25
2017-05-06T04:16:13.183Z,25
2017-05-06T04:16:38.693Z,25
2017-05-06T04:17:04.160Z,25
2017-05-06T04:17:29.629Z,25
2017-05-06T04:17:55.098Z,25
2017-05-06T04:18:20.564Z,25
2017-05-06T04:18:46.040Z,25
2017-05-06T04:19:11.530Z,25
2017-05-06T04:19:37.012Z,25
2017-05-06T04:20:02.509Z,25
2017-05-06T04:20:27.993Z,25
2017-05-06T04:20:53.510Z,30
2017-05-06T04:21:18.977Z,30
2017-05-06T04:21:44.443Z,30
2017-05-06T04:22:09.959Z,30
2017-05-06T04:22:35.487Z,30
2017-05-06T04:23:00.972Z,30
2017-05-06T04:23:26.458Z,30
2017-05-06T04:23:51.930Z,30
2017-05-06T04:24:17.427Z,30
2017-05-06T04:24:42.891Z,30
2017-05-06T04:25:08.394Z,30
2017-05-06T04:25:33.869Z,30
2017-05-06T04:25:59.332Z,30
2017-05-06T04:26:24.831Z,35
2017-05-06T04:26:50.322Z,35
2017-05-06T04:27:15.821Z,35
2017-05-06T04:27:41.304Z,35
2017-05-06T04:28:06.785Z,35
2017-05-06T04:28:32.263Z,35
2017-05-06T04:28:57.729Z,35
2017-05-06T04:29:23.194Z,35
2017-05-06T04:29:48.685Z,35
2017-05-06T04:30:14.158Z,40
2017-05-06T04:30:39.675Z,40
2017-05-06T04:31:05.133Z,40
2017-05-06T04:31:30.610Z,40
2017-05-06T04:31:56.072Z,40
2017-05-06T04:32:21.620Z,40
2017-05-06T04:32:47.127Z,40
2017-05-06T04:33:12.596Z,45
2017-05-06T04:33:38.088Z,45
2017-05-06T04:34:03.570Z,45
2017-05-06T04:34:29.037Z,45
2017-05-06T04:34:54.529Z,45
2017-05-06T04:35:20.013Z,45
2017-05-06T04:35:45.489Z,45
2017-05-06T04:36:10.982Z,45
2017-05-06T04:36:36.456Z,50
2017-05-06T04:37:01.942Z,50
2017-05-06T04:37:27.416Z,50
2017-05-06T04:37:52.896Z,50
2017-05-06T04:38:18.432Z,50
2017-05-06T04:38:43.897Z,50
2017-05-06T04:39:09.385Z,55
2017-05-06T04:39:34.885Z,55
2017-05-06T04:40:00.383Z,55
2017-05-06T04:40:25.840Z,60
2017-05-06T04:40:51.324Z,60
2017-05-06T04:41:16.784Z,55
2017-05-06T04:41:42.267Z,55
2017-05-06T04:42:07.754Z,60
2017-05-06T04:42:33.252Z,60
2017-05-06T04:42:58.772Z,60
2017-05-06T04:43:24.207Z,60
2017-05-06T04:43:49.698Z,60
2017-05-06T04:44:15.162Z,60
2017-05-06T04:44:40.693Z,60
2017-05-06T04:45:06.187Z,65
2017-05-06T04:45:31.659Z,60
2017-05-06T04:45:57.158Z,60
2017-05-06T04:46:22.678Z,65
2017-05-06T04:46:48.173Z,65
2017-05-06T04:47:13.658Z,65
2017-05-06T04:47:39.155Z,65
2017-05-06T04:48:04.611Z,65
2017-05-06T04:48:30.073Z,65
2017-05-06T04:48:55.548Z,70
2017-05-06T04:49:21.043Z,75
2017-05-06T04:49:46.498Z,70
2017-05-06T04:50:11.971Z,70
2017-05-06T04:50:37.478Z,70
2017-05-06T04:51:03.010Z,75
2017-05-06T04:51:28.466Z,75
2017-05-06T04:51:53.944Z,75
2017-05-06T04:52:19.413Z,80
2017-05-06T04:52:44.890Z,80
2017-05-06T04:53:10.317Z,80
2017-05-06T04:53:35.837Z,80
2017-05-06T04:54:01.289Z,80
2017-05-06T04:54:26.769Z,80
2017-05-06T04:54:52.263Z,80
2017-05-06T04:55:17.734Z,80
2017-05-06T04:55:43.257Z,85
2017-05-06T04:56:08.805Z,80
2017-05-06T04:56:34.288Z,85
2017-05-06T04:56:59.771Z,85
2017-05-06T04:57:25.255Z,90
2017-05-06T04:57:50.767Z,90
2017-05-06T04:58:16.222Z,90
2017-05-06T04:58:41.690Z,90
2017-05-06T04:59:07.160Z,90
2017-05-06T04:59:32.668Z,95
2017-05-06T04:59:58.154Z,95
2017-05-06T05:00:23.670Z,90
2017-05-06T05:00:49.144Z,90
2017-05-06T05:01:14.589Z,100
2017-05-06T05:01:40.053Z,105
2017-05-06T05:02:05.538Z,105
2017-05-06T05:02:31.030Z,100
2017-05-06T05:02:56.489Z,95
2017-05-06T05:03:21.990Z,95
2017-05-06T05:03:47.465Z,100
2017-05-06T05:04:12.993Z,105
2017-05-06T05:04:38.448Z,115
2017-05-06T05:05:03.929Z,110
2017-05-06T05:05:29.425Z,105
2017-05-06T05:05:54.923Z,110
2017-05-06T05:06:20.378Z,110
2017-05-06T05:06:45.842Z,110
2017-05-06T05:07:11.316Z,105
2017-05-06T05:07:36.790Z,105
2017-05-06T05:08:02.299Z,105
2017-05-06T05:08:27.741Z,110
2017-05-06T05:08:53.227Z,115
2017-05-06T05:09:18.734Z,115
2017-05-06T05:09:44.259Z,120
2017-05-06T05:10:09.724Z,115
2017-05-06T05:10:35.215Z,115
2017-05-06T05:11:00.677Z,125
2017-05-06T05:11:26.123Z,125
2017-05-06T05:11:51.612Z,120
2017-05-06T05:12:17.103Z,120
2017-05-06T05:12:42.564Z,130
2017-05-06T05:13:08.063Z,125
2017-05-06T05:13:33.537Z,125
2017-05-06T05:13:59.035Z,125
2017-05-06T05:14:24.518Z,130
2017-05-06T05:14:49.977Z,125
2017-05-06T05:15:15.451Z,120
2017-05-06T05:15:40.932Z,125
2017-05-06T05:16:06.422Z,125
2017-05-06T05:16:31.866Z,125
2017-05-06T05:17:55.926Z,125
2017-05-06T05:18:21.352Z,130
2017-05-06T05:18:46.839Z,120
2017-05-06T05:19:12.336Z,120
2017-05-06T05:19:37.834Z,115
2017-05-06T05:20:03.317Z,115
2017-05-06T05:20:28.826Z,110
2017-05-06T05:20:54.289Z,110
2017-05-06T05:21:19.794Z,115
2017-05-06T05:21:45.276Z,115
2017-05-06T05:22:10.780Z,125
2017-05-06T05:22:36.249Z,125
2017-05-06T05:23:01.736Z,125
2017-05-06T05:23:27.210Z,125
2017-05-06T05:23:52.696Z,125
2017-05-06T05:24:18.193Z,125
2017-05-06T05:24:43.696Z,125
2017-05-06T05:25:09.186Z,125
2017-05-06T05:25:34.667Z,125
2017-05-06T05:26:00.182Z,125
2017-05-06T05:26:25.679Z,125
2017-05-06T05:26:51.163Z,120
2017-05-06T05:27:16.677Z,120
2017-05-06T05:27:42.185Z,125
2017-05-06T05:28:07.666Z,125
2017-05-06T05:28:33.150Z,125
2017-05-06T05:28:58.655Z,130
2017-05-06T05:29:24.169Z,130
2017-05-06T05:29:49.662Z,135
2017-05-06T05:30:15.184Z,130
2017-05-06T05:30:40.654Z,130
2017-05-06T05:31:06.132Z,125
2017-05-06T05:31:31.734Z,130
2017-05-06T05:31:57.151Z,135
2017-05-06T05:32:22.652Z,125
2017-05-06T05:32:48.139Z,125
2017-05-06T05:33:13.649Z,130
2017-05-06T05:33:39.141Z,125
2017-05-06T05:34:04.601Z,130
2017-05-06T05:34:30.081Z,130
2017-05-06T05:34:55.552Z,130
2017-05-06T05:35:21.022Z,135
2017-05-06T05:35:46.531Z,135
2017-05-06T05:36:12.045Z,135
2017-05-06T05:36:37.493Z,140
2017-05-06T05:37:02.958Z,140
2017-05-06T05:37:28.482Z,140
2017-05-06T05:37:53.959Z,140
2017-05-06T05:38:19.405Z,140
2017-05-06T05:38:44.879Z,140
2017-05-06T05:39:10.397Z,145
2017-05-06T05:39:35.878Z,145
2017-05-06T05:40:01.394Z,140
2017-05-06T05:40:26.891Z,145
2017-05-06T05:40:52.385Z,145
2017-05-06T05:41:17.864Z,150
2017-05-06T05:41:43.326Z,145
2017-05-06T05:42:08.796Z,150
2017-05-06T05:42:34.263Z,145
2017-05-06T05:42:59.787Z,145
2017-05-06T05:43:25.261Z,145
2017-05-06T05:43:50.711Z,145
2017-05-06T05:44:16.180Z,150
2017-05-06T05:44:41.660Z,150
2017-05-06T05:45:07.151Z,155
2017-05-06T05:45:32.600Z,155
2017-05-06T05:45:58.089Z,155
2017-05-06T05:46:23.569Z,155
2017-05-06T05:46:49.058Z,160
2017-05-06T05:47:14.525Z,160
2017-05-06T05:47:39.999Z,160
2017-05-06T05:48:05.501Z,160
2017-05-06T05:48:30.974Z,165
2017-05-06T05:48:56.459Z,160
2017-05-06T05:49:21.915Z,160
2017-05-06T05:49:47.425Z,165
2017-05-06T05:50:12.920Z,165
2017-05-06T05:50:38.402Z,170
2017-05-06T05:51:03.890Z,170
2017-05-06T05:51:29.371Z,165
2017-05-06T05:51:54.838Z,165
2017-05-06T05:52:20.332Z,165
2017-05-06T05:52:45.820Z,165
2017-05-06T05:53:11.305Z,170
2017-05-06T05:53:36.815Z,170
2017-05-06T05:54:02.297Z,175
2017-05-06T05:54:27.796Z,170
2017-05-06T05:54:53.276Z,170
2017-05-06T05:55:18.776Z,170
2017-05-06T05:55:44.260Z,170
2017-05-06T05:56:09.773Z,175
2017-05-06T05:56:35.242Z,175
2017-05-06T05:57:00.706Z,170
2017-05-06T05:57:26.207Z,170
2017-05-06T05:57:51.684Z,175
2017-05-06T05:58:17.171Z,175
2017-05-06T05:58:42.704Z,180
2017-05-06T05:59:08.164Z,180
2017-05-06T05:59:33.683Z,180
2017-05-06T05:59:59.168Z,180
2017-05-06T06:00:24.666Z,180
2017-05-06T06:00:50.157Z,195
2017-05-06T06:01:15.617Z,205
2017-05-06T06:01:41.140Z,205
2017-05-06T06:02:06.583Z,200
2017-05-06T06:02:32.077Z,195
2017-05-06T06:02:57.595Z,190
2017-05-06T06:03:23.063Z,190
2017-05-06T06:03:48.547Z,200
2017-05-06T06:04:14.022Z,200
2017-05-06T06:04:39.500Z,200
2017-05-06T06:05:04.989Z,200
2017-05-06T06:05:30.483Z,195
2017-05-06T06:05:55.962Z,190
2017-05-06T06:06:21.483Z,190
2017-05-06T06:06:46.942Z,200
2017-05-06T06:07:12.433Z,195
2017-05-06T06:07:37.919Z,200
2017-05-06T06:08:03.414Z,200
2017-05-06T06:08:28.887Z,190
2017-05-06T06:08:54.374Z,200
2017-05-06T06:09:19.871Z,190
2017-05-06T06:09:45.339Z,190
2017-05-06T06:10:10.806Z,190
2017-05-06T06:10:36.330Z,190
2017-05-06T06:11:01.802Z,195
2017-05-06T06:11:27.316Z,200
2017-05-06T06:11:52.816Z,205
2017-05-06T06:12:18.298Z,195
2017-05-06T06:12:43.786Z,195
2017-05-06T06:13:09.284Z,195
2017-05-06T06:13:34.755Z,195
2017-05-06T06:14:00.214Z,195
2017-05-06T06:14:25.711Z,205
2017-05-06T06:14:51.214Z,215
2017-05-06T06:15:16.731Z,210
2017-05-06T06:15:42.234Z,200
2017-05-06T06:16:07.699Z,200
2017-05-06T06:16:33.190Z,195
2017-05-06T06:16:58.673Z,195
2017-05-06T06:17:24.166Z,190
2017-05-06T06:17:49.671Z,195
2017-05-06T06:18:15.175Z,195
2017-05-06T06:18:40.665Z,195
2017-05-06T06:19:06.157Z,195
2017-05-06T06:19:31.622Z,200
2017-05-06T06:19:57.134Z,205
2017-05-06T06:20:22.593Z,195
2017-05-06T06:20:48.116Z,190
2017-05-06T06:21:13.644Z,190
2017-05-06T06:21:39.126Z,190
2017-05-06T06:22:04.567Z,190
2017-05-06T06:22:30.074Z,190
2017-05-06T06:22:55.558Z,190
2017-05-06T06:23:21.044Z,195
2017-05-06T06:23:46.529Z,190
2017-05-06T06:24:11.997Z,185
2017-05-06T06:24:37.515Z,185
2017-05-06T06:25:02.995Z,185
2017-05-06T06:25:28.494Z,180
2017-05-06T06:25:53.977Z,180
2017-05-06T06:26:19.472Z,180
2017-05-06T06:26:44.937Z,180
2017-05-06T06:27:10.420Z,180
2017-05-06T06:27:35.927Z,180
2017-05-06T06:28:01.425Z,180
2017-05-06T06:28:26.910Z,180
2017-05-06T06:28:52.407Z,180
2017-05-06T06:29:17.897Z,180
2017-05-06T06:29:43.377Z,180
2017-05-06T06:30:08.882Z,180
2017-05-06T06:30:34.369Z,175
2017-05-06T06:30:59.835Z,175
2017-05-06T06:31:25.323Z,175
2017-05-06T06:31:50.818Z,175
2017-05-06T06:32:16.273Z,180
2017-05-06T06:32:41.759Z,180
2017-05-06T06:33:07.215Z,175
2017-05-06T06:33:32.700Z,175
2017-05-06T06:33:58.211Z,175
2017-05-06T06:34:23.691Z,170
2017-05-06T06:34:49.198Z,170
2017-05-06T06:35:14.692Z,165
2017-05-06T06:35:40.179Z,165
2017-05-06T06:36:05.648Z,165
2017-05-06T06:36:31.146Z,160
2017-05-06T06:36:56.645Z,170
2017-05-06T06:37:22.117Z,160
2017-05-06T06:37:47.581Z,160
2017-05-06T06:38:13.059Z,160
2017-05-06T06:38:38.554Z,160
2017-05-06T06:39:04.043Z,165
2017-05-06T06:39:29.512Z,165
2017-05-06T06:39:55.007Z,165
2017-05-06T06:40:20.485Z,160
2017-05-06T06:40:45.977Z,165
2017-05-06T06:41:11.437Z,165
2017-05-06T06:41:36.928Z,170
2017-05-06T06:42:02.387Z,170
2017-05-06T06:42:27.873Z,175
2017-05-06T06:42:53.352Z,180
2017-05-06T06:43:18.807Z,180
2017-05-06T06:43:44.322Z,180
2017-05-06T06:44:09.822Z,180
2017-05-06T06:44:35.260Z,180
2017-05-06T06:45:00.745Z,180
2017-05-06T06:45:26.238Z,185
2017-05-06T06:45:51.729Z,185
2017-05-06T06:46:17.234Z,185
2017-05-06T06:46:42.721Z,180
2017-05-06T06:47:08.190Z,190
2017-05-06T06:47:33.682Z,190
2017-05-06T06:47:59.157Z,185
2017-05-06T06:48:24.679Z,185
2017-05-06T06:48:50.138Z,185
2017-05-06T06:49:15.627Z,200
2017-05-06T06:49:41.081Z,200
2017-05-06T06:50:06.566Z,195
2017-05-06T06:50:32.036Z,190
2017-05-06T06:50:57.528Z,195
2017-05-06T06:51:23.032Z,195
2017-05-06T06:51:48.510Z,195
2017-05-06T06:52:13.970Z,205
2017-05-06T06:52:39.443Z,205
2017-05-06T06:53:04.920Z,205
2017-05-06T06:53:30.429Z,195
2017-05-06T06:53:55.942Z,195
2017-05-06T06:54:21.408Z,190
2017-05-06T06:54:46.866Z,185
2017-05-06T06:55:12.339Z,185
2017-05-06T06:55:37.893Z,185
2017-05-06T06:56:03.374Z,190
2017-05-06T06:56:28.873Z,195
2017-05-06T06:56:54.338Z,195
2017-05-06T06:57:19.832Z,195
2017-05-06T06:57:45.325Z,190
2017-05-06T06:58:10.799Z,195
2017-05-06T06:58:36.261Z,200
2017-05-06T06:59:01.737Z,205
2017-05-06T06:59:27.207Z,210
2017-05-06T06:59:52.679Z,210
2017-05-06T07:00:18.173Z,205
2017-05-06T07:00:43.632Z,195
2017-05-06T07:01:09.101Z,190
2017-05-06T07:01:34.581Z,200
2017-05-06T07:02:00.086Z,205
2017-05-06T07:02:25.571Z,205
2017-05-06T07:02:51.048Z,210
2017-05-06T07:03:16.518Z,215
2017-05-06T07:03:41.997Z,240
2017-05-06T07:04:07.451Z,260
2017-05-06T07:04:32.940Z,255
2017-05-06T07:04:58.423Z,230
2017-05-06T07:05:23.889Z,215
2017-05-06T07:05:49.393Z,240
2017-05-06T07:06:14.869Z,275
2017-05-06T07:06:40.355Z,265
2017-05-06T07:07:05.841Z,275
2017-05-06T07:07:31.299Z,255
2017-05-06T07:07:56.770Z,235
2017-05-06T07:08:22.249Z,235
2017-05-06T07:08:47.752Z,235
2017-05-06T07:09:13.224Z,235
2017-05-06T07:09:38.702Z,225
2017-05-06T07:10:04.215Z,225
2017-05-06T07:10:29.715Z,255
2017-05-06T07:10:55.200Z,270
2017-05-06T07:11:20.690Z,225
2017-05-06T07:11:46.185Z,215
2017-05-06T07:12:11.658Z,210
2017-05-06T07:12:37.127Z,240
2017-05-06T07:13:02.603Z,260
2017-05-06T07:13:28.098Z,285
2017-05-06T07:13:53.584Z,260
2017-05-06T07:14:19.063Z,255
2017-05-06T07:14:44.534Z,250
2017-05-06T07:15:10.028Z,240
2017-05-06T07:15:35.537Z,240
2017-05-06T07:16:01.015Z,270
2017-05-06T07:16:26.514Z,280
2017-05-06T07:16:52.026Z,280
2017-05-06T07:17:17.486Z,275
2017-05-06T07:17:42.964Z,340
2017-05-06T07:18:08.423Z,315
2017-05-06T07:18:33.898Z,270
2017-05-06T07:18:59.395Z,255
2017-05-06T07:19:24.864Z,265
2017-05-06T07:19:50.382Z,240
2017-05-06T07:20:15.881Z,215
2017-05-06T07:20:41.365Z,230
2017-05-06T07:21:06.843Z,210
2017-05-06T07:21:32.348Z,200
2017-05-06T07:21:57.819Z,200
2017-05-06T07:22:23.265Z,215
2017-05-06T07:22:48.771Z,205
2017-05-06T07:23:14.271Z,205
2017-05-06T07:23:39.743Z,205
2017-05-06T07:24:05.240Z,215
2017-05-06T07:24:30.744Z,240
2017-05-06T07:24:56.239Z,250
2017-05-06T07:25:21.755Z,230
2017-05-06T07:25:47.231Z,215
2017-05-06T07:26:12.704Z,215
2017-05-06T07:26:38.195Z,210
2017-05-06T07:27:03.656Z,205
2017-05-06T07:27:29.147Z,205
2017-05-06T07:27:54.640Z,230
2017-05-06T07:28:20.137Z,285
2017-05-06T07:28:45.607Z,290
2017-05-06T07:29:11.091Z,265
2017-05-06T07:29:36.555Z,245
2017-05-06T07:30:02.042Z,270
2017-05-06T07:30:27.514Z,245
2017-05-06T07:30:52.974Z,220
2017-05-06T07:31:18.444Z,230
2017-05-06T07:31:43.908Z,225
2017-05-06T07:32:09.367Z,225
2017-05-06T07:32:34.859Z,240
2017-05-06T07:33:00.370Z,250
2017-05-06T07:33:25.812Z,245
2017-05-06T07:33:51.282Z,275
2017-05-06T07:34:16.753Z,330
2017-05-06T07:34:42.222Z,310
2017-05-06T07:35:07.686Z,280
2017-05-06T07:35:33.174Z,305
2017-05-06T07:35:58.646Z,280
2017-05-06T07:36:24.182Z,260
2017-05-06T07:36:49.651Z,245
2017-05-06T07:37:15.131Z,260
2017-05-06T07:37:40.582Z,285
2017-05-06T07:38:06.028Z,325
2017-05-06T07:38:31.511Z,320
2017-05-06T07:38:57.032Z,290
2017-05-06T07:39:22.535Z,325
2017-05-06T07:39:47.983Z,350
2017-05-06T07:40:13.466Z,310
2017-05-06T07:40:38.953Z,270
2017-05-06T07:41:04.482Z,300
2017-05-06T07:41:29.930Z,320
2017-05-06T07:41:55.417Z,315
2017-05-06T07:42:20.980Z,295
2017-05-06T07:42:46.523Z,300
2017-05-06T07:43:12.038Z,295
2017-05-06T07:43:37.540Z,305
2017-05-06T07:44:03.001Z,340
2017-05-06T07:44:28.460Z,345
2017-05-06T07:44:53.942Z,315
2017-05-06T07:45:19.408Z,290
2017-05-06T07:45:44.889Z,270
2017-05-06T07:46:10.354Z,285
2017-05-06T07:46:35.817Z,305
2017-05-06T07:47:01.298Z,330
2017-05-06T07:47:26.802Z,310
2017-05-06T07:47:52.278Z,325
2017-05-06T07:48:17.760Z,285
2017-05-06T07:48:43.246Z,260
2017-05-06T07:49:08.730Z,245
2017-05-06T07:49:34.208Z,245
2017-05-06T07:49:59.661Z,255
2017-05-06T07:50:25.180Z,245
2017-05-06T07:50:50.681Z,245
2017-05-06T07:51:16.144Z,260
2017-05-06T07:51:41.630Z,250
2017-05-06T07:52:07.081Z,265
2017-05-06T07:52:32.596Z,300
2017-05-06T07:52:58.076Z,305
2017-05-06T07:53:23.544Z,285
2017-05-06T07:53:49.037Z,310
2017-05-06T07:54:14.522Z,275
2017-05-06T07:54:40.005Z,250
2017-05-06T07:55:05.474Z,230
2017-05-06T07:55:30.944Z,260
2017-05-06T07:55:56.417Z,295
2017-05-06T07:56:21.924Z,330
2017-05-06T07:56:47.394Z,320
2017-05-06T07:57:12.868Z,270
2017-05-06T07:57:38.322Z,255
2017-05-06T07:58:03.793Z,255
2017-05-06T07:58:29.262Z,290
2017-05-06T07:58:54.702Z,305
2017-05-06T07:59:20.178Z,270
2017-05-06T07:59:45.676Z,280
2017-05-06T08:00:11.123Z,310
2017-05-06T08:00:36.591Z,330
2017-05-06T08:01:02.040Z,310
2017-05-06T08:01:27.549Z,305
2017-05-06T08:01:52.995Z,310
2017-05-06T08:02:18.455Z,295
2017-05-06T08:02:43.918Z,270
2017-05-06T08:03:09.392Z,265
2017-05-06T08:03:34.863Z,265
2017-05-06T08:04:00.332Z,275
2017-05-06T08:04:25.826Z,285
2017-05-06T08:04:51.304Z,275
2017-05-06T08:05:16.753Z,285
2017-05-06T08:05:42.229Z,270
2017-05-06T08:06:07.702Z,255
2017-05-06T08:06:33.191Z,255
2017-05-06T08:06:58.663Z,265
2017-05-06T08:07:24.118Z,265
2017-05-06T08:07:49.588Z,280
2017-05-06T08:08:15.109Z,280
2017-05-06T08:08:40.552Z,315
2017-05-06T08:09:06.029Z,330
2017-05-06T08:09:31.516Z,315
2017-05-06T08:09:57.073Z,290
2017-05-06T08:10:22.478Z,270
2017-05-06T08:10:47.941Z,255
2017-05-06T08:11:13.402Z,260
2017-05-06T08:11:38.892Z,265
2017-05-06T08:12:04.351Z,250
2017-05-06T08:12:29.889Z,240
2017-05-06T08:12:55.381Z,235
2017-05-06T08:13:20.833Z,240
2017-05-06T08:13:46.359Z,245
2017-05-06T08:14:11.798Z,255
2017-05-06T08:14:37.348Z,270
2017-05-06T08:15:02.736Z,285
2017-05-06T08:15:28.268Z,265
2017-05-06T08:15:53.673Z,250
2017-05-06T08:16:19.161Z,255
2017-05-06T08:16:44.614Z,255
2017-05-06T08:17:10.074Z,240
2017-05-06T08:17:35.535Z,230
2017-05-06T08:18:01.011Z,230
2017-05-06T08:18:26.507Z,255
2017-05-06T08:18:51.934Z,270
2017-05-06T08:19:17.463Z,255
2017-05-06T08:19:42.947Z,265
2017-05-06T08:20:08.402Z,275
2017-05-06T08:20:33.954Z,280
2017-05-06T08:20:59.405Z,280
2017-05-06T08:21:24.817Z,260
2017-05-06T08:21:50.298Z,255
2017-05-06T08:22:15.772Z,255
2017-05-06T08:22:41.208Z,275
2017-05-06T08:23:06.726Z,285
2017-05-06T08:23:32.164Z,300
2017-05-06T08:23:57.626Z,340
2017-05-06T08:24:23.096Z,390
2017-05-06T08:24:48.574Z,410
2017-05-06T08:25:14.031Z,350
2017-05-06T08:25:39.525Z,320
2017-05-06T08:26:05.013Z,290
2017-05-06T08:26:30.470Z,305
2017-05-06T08:26:55.938Z,315
2017-05-06T08:27:21.400Z,295
2017-05-06T08:27:46.867Z,295
2017-05-06T08:28:12.350Z,350
2017-05-06T08:28:37.804Z,380
2017-05-06T08:29:03.242Z,345
2017-05-06T08:29:28.733Z,360
2017-05-06T08:29:54.213Z,370
2017-05-06T08:30:19.647Z,380
2017-05-06T08:30:45.130Z,340
2017-05-06T08:31:10.570Z,315
2017-05-06T08:31:36.036Z,310
2017-05-06T08:32:01.514Z,310
2017-05-06T08:32:27.013Z,305
2017-05-06T08:32:52.501Z,300
2017-05-06T08:33:18.005Z,325
2017-05-06T08:33:43.458Z,350
2017-05-06T08:34:09.232Z,330
2017-05-06T08:34:35.220Z,305
2017-05-06T08:35:00.671Z,315
2017-05-06T08:35:26.149Z,315
2017-05-06T08:35:51.669Z,300
2017-05-06T08:36:17.141Z,300
2017-05-06T08:36:42.634Z,295
2017-05-06T08:37:08.160Z,275
2017-05-06T08:37:33.594Z,285
2017-05-06T08:37:59.082Z,280
2017-05-06T08:38:24.523Z,265
2017-05-06T08:38:50.038Z,270
2017-05-06T08:39:15.521Z,250
2017-05-06T08:39:40.975Z,240
2017-05-06T08:40:06.455Z,260
2017-05-06T08:40:31.934Z,270
2017-05-06T08:40:57.392Z,280
2017-05-06T08:41:22.879Z,265
2017-05-06T08:41:48.318Z,250
2017-05-06T08:42:13.784Z,255
2017-05-06T08:42:39.301Z,255
2017-05-06T08:43:04.774Z,255
2017-05-06T08:43:30.270Z,235
2017-05-06T08:43:55.717Z,225
2017-05-06T08:44:21.219Z,220
2017-05-06T08:44:46.687Z,225
2017-05-06T08:45:12.179Z,225
2017-05-06T08:45:37.642Z,225
2017-05-06T08:46:03.157Z,225
2017-05-06T08:46:28.595Z,225
2017-05-06T08:46:54.058Z,230
2017-05-06T08:47:19.531Z,230
2017-05-06T08:47:44.986Z,230
2017-05-06T08:48:10.477Z,240
2017-05-06T08:48:35.953Z,230
2017-05-06T08:49:01.421Z,225
2017-05-06T08:49:26.918Z,230
2017-05-06T08:49:52.403Z,225
2017-05-06T08:50:17.889Z,220
2017-05-06T08:50:43.340Z,220
2017-05-06T08:51:08.789Z,225
2017-05-06T08:51:34.272Z,230
2017-05-06T08:51:59.739Z,235
2017-05-06T08:52:25.218Z,245
2017-05-06T08:52:50.691Z,245
2017-05-06T08:53:16.163Z,240
2017-05-06T08:53:41.628Z,240
2017-05-06T08:54:07.066Z,245
2017-05-06T08:54:32.531Z,270
2017-05-06T08:54:58.001Z,275
2017-05-06T08:55:23.513Z,275
2017-05-06T08:55:48.953Z,270
2017-05-06T08:56:14.398Z,265
2017-05-06T08:56:39.858Z,265
2017-05-06T08:57:05.340Z,255
2017-05-06T08:57:30.812Z,245
2017-05-06T08:57:56.298Z,250
2017-05-06T08:58:21.792Z,265
2017-05-06T08:58:47.235Z,270
2017-05-06T08:59:12.807Z,265
2017-05-06T08:59:38.306Z,250
2017-05-06T09:00:03.789Z,260
2017-05-06T09:00:29.286Z,245
2017-05-06T09:00:54.771Z,260
2017-05-06T09:01:20.232Z,275
2017-05-06T09:01:45.705Z,280
2017-05-06T09:02:11.220Z,290
2017-05-06T09:02:36.707Z,260
2017-05-06T09:03:02.308Z,250
2017-05-06T09:03:27.813Z,240
2017-05-06T09:03:53.349Z,240
2017-05-06T09:04:18.889Z,235
2017-05-06T09:04:44.444Z,230
2017-05-06T09:05:09.927Z,225
2017-05-06T09:05:35.426Z,225
2017-05-06T09:06:00.912Z,225
2017-05-06T09:06:26.510Z,220
2017-05-06T09:06:52.314Z,220
2017-05-06T09:07:17.737Z,225
2017-05-06T09:07:43.248Z,225
2017-05-06T09:08:08.875Z,230
2017-05-06T09:08:34.581Z,235
2017-05-06T09:09:00.071Z,230
2017-05-06T09:09:25.566Z,230
2017-05-06T09:09:51.041Z,235
2017-05-06T09:10:16.492Z,235
2017-05-06T09:10:41.988Z,230
2017-05-06T09:11:07.456Z,225
2017-05-06T09:11:33.155Z,225
2017-05-06T09:11:58.589Z,225
2017-05-06T09:12:24.064Z,225
2017-05-06T09:12:49.560Z,225
2017-05-06T09:13:15.235Z,225
2017-05-06T09:13:40.714Z,225
2017-05-06T09:14:06.222Z,220
2017-05-06T09:14:31.718Z,225
2017-05-06T09:14:57.215Z,225
2017-05-06T09:15:22.702Z,225
2017-05-06T09:15:48.216Z,225
2017-05-06T09:16:13.692Z,225
2017-05-06T09:16:39.149Z,225
2017-05-06T09:17:04.631Z,225
2017-05-06T09:17:30.137Z,225
2017-05-06T09:17:55.602Z,225
2017-05-06T09:18:21.006Z,225
2017-05-06T09:18:46.479Z,225
2017-05-06T09:19:11.993Z,225
2017-05-06T09:19:37.395Z,225
2017-05-06T09:20:02.887Z,220
2017-05-06T09:20:28.337Z,225
2017-05-06T09:20:53.836Z,225
2017-05-06T09:21:19.314Z,220
2017-05-06T09:21:44.869Z,220
2017-05-06T09:22:10.299Z,220
2017-05-06T09:22:35.810Z,220
2017-05-06T09:23:01.264Z,220
2017-05-06T09:23:26.772Z,220
2017-05-06T09:23:52.218Z,225
2017-05-06T09:24:17.718Z,225
2017-05-06T09:24:43.187Z,225
2017-05-06T09:25:08.660Z,225
2017-05-06T09:25:34.124Z,225
2017-05-06T09:25:59.570Z,220
2017-05-06T09:26:25.068Z,220
2017-05-06T09:26:50.520Z,220
2017-05-06T09:27:15.977Z,225
2017-05-06T09:27:41.483Z,225
2017-05-06T09:28:06.882Z,225
2017-05-06T09:28:32.382Z,230
2017-05-06T09:28:57.823Z,220
2017-05-06T09:29:23.305Z,220
2017-05-06T09:29:48.771Z,220
2017-05-06T09:30:14.205Z,220
2017-05-06T09:30:39.678Z,220
2017-05-06T09:31:05.124Z,220
2017-05-06T09:31:30.693Z,220
2017-05-06T09:31:56.109Z,220
2017-05-06T09:32:21.618Z,225
2017-05-06T09:32:47.111Z,225
2017-05-06T09:33:12.563Z,225
2017-05-06T09:33:38.000Z,225
2017-05-06T09:34:03.462Z,225
2017-05-06T09:34:28.988Z,225
2017-05-06T09:34:54.410Z,225
2017-05-06T09:35:19.863Z,225
2017-05-06T09:35:45.340Z,225
2017-05-06T09:36:10.803Z,230
2017-05-06T09:36:36.252Z,230
2017-05-06T09:37:01.748Z,225
2017-05-06T09:37:27.239Z,225
2017-05-06T09:37:52.686Z,220
2017-05-06T09:38:18.127Z,220
2017-05-06T09:38:43.653Z,230
2017-05-06T09:39:09.144Z,230
2017-05-06T09:39:34.558Z,230
2017-05-06T09:40:00.035Z,225
2017-05-06T09:40:25.517Z,230
2017-05-06T09:40:50.952Z,240
2017-05-06T09:41:16.411Z,235
2017-05-06T09:41:41.945Z,230
2017-05-06T09:42:07.415Z,230
2017-05-06T09:42:32.918Z,230
2017-05-06T09:42:58.364Z,230
2017-05-06T09:43:23.795Z,230
2017-05-06T09:43:49.284Z,230
2017-05-06T09:44:14.753Z,230
2017-05-06T09:44:40.210Z,230
2017-05-06T09:45:05.773Z,235
2017-05-06T09:45:31.210Z,240
2017-05-06T09:45:56.702Z,270
2017-05-06T09:46:22.239Z,295
2017-05-06T09:46:47.690Z,295
2017-05-06T09:47:13.120Z,295
2017-05-06T09:47:38.613Z,275
2017-05-06T09:48:04.092Z,260
2017-05-06T09:48:29.548Z,255
2017-05-06T09:48:54.975Z,250
2017-05-06T09:49:20.455Z,255
2017-05-06T09:49:45.881Z,250
2017-05-06T09:50:11.579Z,245
2017-05-06T09:50:36.968Z,245
2017-05-06T09:51:02.449Z,250
2017-05-06T09:51:27.974Z,250
2017-05-06T09:51:53.401Z,275
2017-05-06T09:52:18.876Z,285
2017-05-06T09:52:44.325Z,265
2017-05-06T09:53:09.784Z,250
2017-05-06T09:53:35.265Z,245
2017-05-06T09:54:00.733Z,240
2017-05-06T09:54:26.285Z,240
2017-05-06T09:54:51.782Z,240